WetterOnline ( http://www.wetteronline.de )

Wetter aktuell Altusried

Aktuelles Wetter: Kempten (705m)

6-stündlich | Neueste Meldungen
Ortszeit Temperatur Wetter
Mo, 20.08. 14:00 25.5° C leicht bewölkt
Mo, 20.08. 8:00 16.7° C fast wolkenlos
Mo, 20.08. 2:00 18.0° C leicht bewölkt
So, 19.08. 20:00 25.7° C bewölkt
So, 19.08. 14:00 26.3° C wolkenlos
So, 19.08. 8:00 15.9° C wolkenlos
So, 19.08. 2:00 17.1° C bedeckt
Sa, 18.08. 20:00 21.9° C wolkenlos
Ortszeit Temperatur Wetter
Mo, 20.08. 16:00 27.4° C leicht bewölkt
Mo, 20.08. 15:50 27.4° C leicht bewölkt
Mo, 20.08. 15:40 27.6° C leicht bewölkt
Mo, 20.08. 15:30 27.3° C wolkig
Mo, 20.08. 15:20 27.3° C wolkig
Mo, 20.08. 15:10 27.0° C wolkig
Mo, 20.08. 15:00 27.2° C bewölkt
Mo, 20.08. 14:30 27.2° C fast wolkenlos
Mo, 20.08. 14:00 25.5° C leicht bewölkt
Mo, 20.08. 13:30 26.3° C wolkenlos
Mo, 20.08. 13:00 25.7° C wolkenlos
Ortszeit Relative Feuchte Sichtweite
Mo, 20.08. 14:00 47% 24 km
Mo, 20.08. 8:00 87% 12 km
Mo, 20.08. 2:00 84% 16 km
So, 19.08. 20:00 45% 40 km
So, 19.08. 14:00 39% 30 km
So, 19.08. 8:00 88% 13 km
So, 19.08. 2:00 85% 19 km
Sa, 18.08. 20:00 65% 26 km
Ortszeit Relative Feuchte Sichtweite
Mo, 20.08. 16:00 38% 17 km
Mo, 20.08. 15:50 38% -
Mo, 20.08. 15:40 40% -
Mo, 20.08. 15:30 40% 13 km
Mo, 20.08. 15:20 40% -
Mo, 20.08. 15:10 40% -
Mo, 20.08. 15:00 44% 15 km
Mo, 20.08. 14:30 45% 21 km
Mo, 20.08. 14:00 47% 24 km
Mo, 20.08. 13:30 46% 19 km
Mo, 20.08. 13:00 49% 15 km
Ortszeit Niederschlagsmenge Niederschlagsart
Mo, 20.08. 14:00 0.0 l/m2 in 6 Std. -
Mo, 20.08. 8:00 0.0 l/m2 in 12 Std. -
Mo, 20.08. 2:00 0.0 l/m2 in 6 Std. -
So, 19.08. 20:00 0.1 l/m2 in 12 Std. Niederschlag
So, 19.08. 14:00 0.0 l/m2 in 6 Std. -
So, 19.08. 8:00 0.0 l/m2 in 12 Std. -
So, 19.08. 2:00 0.0 l/m2 in 6 Std. -
Sa, 18.08. 20:00 0.0 l/m2 in 12 Std. -
Ortszeit Niederschlagsmenge Niederschlagsart
Mo, 20.08. 16:00 0.0 l/m2 in 1 Std. -
Mo, 20.08. 15:50 keine Meldung -
Mo, 20.08. 15:40 keine Meldung -
Mo, 20.08. 15:30 0.0 l/m2 in 1 Std. -
Mo, 20.08. 15:20 keine Meldung -
Mo, 20.08. 15:10 keine Meldung -
Mo, 20.08. 15:00 0.0 l/m2 in 1 Std. -
Mo, 20.08. 14:30 0.0 l/m2 in 1 Std. -
Mo, 20.08. 14:00 0.0 l/m2 in 1 Std. -
Mo, 20.08. 13:30 0.0 l/m2 in 1 Std. -
Mo, 20.08. 13:00 0.0 l/m2 in 1 Std. -
Ortszeit Stärke Spitze Richtung
km/h Bft. km/h Grad Sektor
Mo, 20.08. 14:00 7 2 18 330° NW
Mo, 20.08. 8:00 4 1 11 120° SO
Mo, 20.08. 2:00 4 1 14 110° O
So, 19.08. 20:00 4 1 18 350° N
So, 19.08. 14:00 7 2 18 10° N
So, 19.08. 8:00 4 1 11 170° S
So, 19.08. 2:00 6 1 17 120° SO
Sa, 18.08. 20:00 4 1 25 80° O
Ortszeit Stärke Spitze Richtung
km/h Bft. km/h Grad Sektor
Mo, 20.08. 16:00 7 2 22 340° N
Mo, 20.08. 15:50 7 2 - 340° N
Mo, 20.08. 15:40 7 2 - 310° NW
Mo, 20.08. 15:30 11 2 22 330° NW
Mo, 20.08. 15:20 11 2 - 330° NW
Mo, 20.08. 15:10 7 2 - 330° NW
Mo, 20.08. 15:00 9 2 20 330° NW
Mo, 20.08. 14:30 6 1 17 290° W
Mo, 20.08. 14:00 7 2 14 330° NW
Mo, 20.08. 13:30 6 1 15 320° NW
Mo, 20.08. 13:00 7 2 18 340° N
Ortszeit Untergrenze Bedeckung Gattung
total tief tief mittel hoch
Mo, 20.08. 14:00 1500 m 4/8 4/8 - - -
Mo, 20.08. 8:00 2700 m 1/8 1/8 - - -
Mo, 20.08. 2:00 1800 m 4/8 4/8 - - -
So, 19.08. 20:00 1800 m 7/8 7/8 - - -
So, 19.08. 14:00 - 0/8 0/8 - - -
So, 19.08. 8:00 - 0/8 0/8 - - -
So, 19.08. 2:00 1440 m 8/8 8/8 - - -
Sa, 18.08. 20:00 - 0/8 0/8 - - -
Ortszeit Bedeckungsgrad in Achtel und Wolkenuntergrenze
Mo, 20.08. 16:00 2(1500m)
Mo, 20.08. 15:50 2(1500m)
Mo, 20.08. 15:40 4(1500m)
Mo, 20.08. 15:30 6(1500m)
Mo, 20.08. 15:20 6(1500m)
Mo, 20.08. 15:10 5(1500m)
Mo, 20.08. 15:00 7(1500m)
Mo, 20.08. 14:30 1(1440m)
Mo, 20.08. 14:00 4(1500m)
Mo, 20.08. 13:30 1(10500m)
Mo, 20.08. 13:00 keine Wolken
Ortszeit Luftdruck NN (hPa) Tendenz (hPa in 3 Std.)
Mo, 20.08. 14:00 1017 - 0,8
Mo, 20.08. 8:00 1020 + 0,4
Mo, 20.08. 2:00 1020 + 0,3
So, 19.08. 20:00 1016 - 0,1
So, 19.08. 14:00 1017 - 1,4
So, 19.08. 8:00 1022 0,0
So, 19.08. 2:00 1022 + 0,3
Sa, 18.08. 20:00 1019 + 0,4
Ortszeit Luftdruck NN (hPa) Tendenz (hPa in 3 Std.)
Mo, 20.08. 16:00 1016 - 1,1
Mo, 20.08. 15:50 1016 keine Meldung
Mo, 20.08. 15:40 1015 keine Meldung
Mo, 20.08. 15:30 1016 - 1,0
Mo, 20.08. 15:20 1016 keine Meldung
Mo, 20.08. 15:10 1016 keine Meldung
Mo, 20.08. 15:00 1016 - 0,8
Mo, 20.08. 14:30 1016 - 0,9
Mo, 20.08. 14:00 1017 - 0,8
Mo, 20.08. 13:30 1017 - 0,7
Mo, 20.08. 13:00 1017 - 0,6
Ortszeit Schneehöhe (cm)
Mo, 20.08. 14:00 -
Mo, 20.08. 8:00 -
Mo, 20.08. 2:00 -
So, 19.08. 20:00 -
So, 19.08. 14:00 -
So, 19.08. 8:00 -
So, 19.08. 2:00 -
Sa, 18.08. 20:00 -
Ortszeit Schneehöhe (cm)
Mo, 20.08. 16:00 -
Mo, 20.08. 15:50 -
Mo, 20.08. 15:40 -
Mo, 20.08. 15:30 -
Mo, 20.08. 15:20 -
Mo, 20.08. 15:10 -
Mo, 20.08. 15:00 -
Mo, 20.08. 14:30 -
Mo, 20.08. 14:00 -
Mo, 20.08. 13:30 -
Mo, 20.08. 13:00 -
Link zu dieser Seite / Seite empfehlen

Das Wetter in ...